sensor_id;sensor_type;location;lat;lon;timestamp;pressure;altitude;pressure_sealevel;temperature;humidity
64711;BME280;51139;45.626;6.850;2023-04-24T00:01:41;81313.06;;;3.25;100.00
64711;BME280;51139;45.626;6.850;2023-04-24T00:04:07;81303.44;;;3.35;100.00
64711;BME280;51139;45.626;6.850;2023-04-24T00:06:39;81301.13;;;3.55;100.00
64711;BME280;51139;45.626;6.850;2023-04-24T00:09:08;81313.53;;;3.46;100.00
64711;BME280;51139;45.626;6.850;2023-04-24T00:11:35;81314.00;;;3.68;100.00
64711;BME280;51139;45.626;6.850;2023-04-24T00:14:00;81303.81;;;3.88;100.00
64711;BME280;51139;45.626;6.850;2023-04-24T00:16:26;81301.03;;;3.86;100.00
64711;BME280;51139;45.626;6.850;2023-04-24T00:18:51;81302.53;;;3.56;100.00
64711;BME280;51139;45.626;6.850;2023-04-24T00:21:21;81310.66;;;3.75;100.00
64711;BME280;51139;45.626;6.850;2023-04-24T00:23:47;81303.72;;;3.62;100.00
64711;BME280;51139;45.626;6.850;2023-04-24T00:26:12;81302.38;;;4.02;100.00
64711;BME280;51139;45.626;6.850;2023-04-24T00:28:38;81307.00;;;3.78;100.00
64711;BME280;51139;45.626;6.850;2023-04-24T00:31:03;81307.41;;;4.08;100.00
64711;BME280;51139;45.626;6.850;2023-04-24T00:33:29;81296.81;;;3.98;100.00
64711;BME280;51139;45.626;6.850;2023-04-24T00:35:54;81299.34;;;3.65;100.00
64711;BME280;51139;45.626;6.850;2023-04-24T00:38:20;81299.56;;;3.44;100.00
64711;BME280;51139;45.626;6.850;2023-04-24T00:40:47;81298.69;;;3.49;100.00
64711;BME280;51139;45.626;6.850;2023-04-24T00:43:12;81301.84;;;3.40;100.00
64711;BME280;51139;45.626;6.850;2023-04-24T00:45:38;81302.53;;;3.48;100.00
64711;BME280;51139;45.626;6.850;2023-04-24T00:48:03;81290.38;;;3.04;100.00
64711;BME280;51139;45.626;6.850;2023-04-24T00:50:30;81297.72;;;3.13;100.00
64711;BME280;51139;45.626;6.850;2023-04-24T00:52:55;81298.91;;;3.20;100.00
64711;BME280;51139;45.626;6.850;2023-04-24T00:55:21;81305.69;;;3.54;100.00
64711;BME280;51139;45.626;6.850;2023-04-24T00:57:47;81309.28;;;3.74;100.00
64711;BME280;51139;45.626;6.850;2023-04-24T01:00:14;81316.00;;;3.44;100.00
64711;BME280;51139;45.626;6.850;2023-04-24T01:02:40;81311.28;;;3.35;100.00
64711;BME280;51139;45.626;6.850;2023-04-24T01:05:09;81321.06;;;2.33;100.00
64711;BME280;51139;45.626;6.850;2023-04-24T01:07:35;81321.44;;;2.53;100.00
64711;BME280;51139;45.626;6.850;2023-04-24T01:10:01;81323.72;;;2.65;100.00
64711;BME280;51139;45.626;6.850;2023-04-24T01:12:26;81322.50;;;2.73;100.00
64711;BME280;51139;45.626;6.850;2023-04-24T01:14:52;81336.81;;;2.72;100.00
64711;BME280;51139;45.626;6.850;2023-04-24T01:17:17;81337.81;;;2.54;100.00
64711;BME280;51139;45.626;6.850;2023-04-24T01:19:43;81341.91;;;2.18;100.00
64711;BME280;51139;45.626;6.850;2023-04-24T01:22:16;81334.81;;;2.34;100.00
64711;BME280;51139;45.626;6.850;2023-04-24T01:24:42;81333.97;;;2.47;100.00
64711;BME280;51139;45.626;6.850;2023-04-24T01:27:09;81338.16;;;2.50;100.00
64711;BME280;51139;45.626;6.850;2023-04-24T01:29:35;81343.25;;;1.51;100.00
64711;BME280;51139;45.626;6.850;2023-04-24T01:32:02;81342.34;;;1.41;100.00
64711;BME280;51139;45.626;6.850;2023-04-24T01:34:28;81333.84;;;2.00;100.00
64711;BME280;51139;45.626;6.850;2023-04-24T01:36:53;81338.13;;;2.35;100.00
64711;BME280;51139;45.626;6.850;2023-04-24T01:39:19;81337.09;;;1.78;100.00
64711;BME280;51139;45.626;6.850;2023-04-24T01:41:45;81334.72;;;1.51;100.00
64711;BME280;51139;45.626;6.850;2023-04-24T01:44:11;81345.84;;;1.43;100.00
64711;BME280;51139;45.626;6.850;2023-04-24T01:46:37;81333.25;;;2.23;100.00
64711;BME280;51139;45.626;6.850;2023-04-24T01:49:03;81326.06;;;2.08;100.00
64711;BME280;51139;45.626;6.850;2023-04-24T01:51:29;81327.25;;;1.99;100.00
64711;BME280;51139;45.626;6.850;2023-04-24T01:53:55;81313.69;;;2.09;100.00
64711;BME280;51139;45.626;6.850;2023-04-24T01:56:21;81319.63;;;2.09;100.00
64711;BME280;51139;45.626;6.850;2023-04-24T01:58:49;81319.19;;;1.82;100.00
64711;BME280;51139;45.626;6.850;2023-04-24T02:01:19;81308.63;;;2.11;100.00
64711;BME280;51139;45.626;6.850;2023-04-24T02:03:45;81307.47;;;2.43;100.00
64711;BME280;51139;45.626;6.850;2023-04-24T02:06:11;81309.25;;;2.63;100.00
64711;BME280;51139;45.626;6.850;2023-04-24T02:08:36;81297.75;;;2.74;100.00
64711;BME280;51139;45.626;6.850;2023-04-24T02:11:01;81293.00;;;2.42;100.00
64711;BME280;51139;45.626;6.850;2023-04-24T02:13:27;81298.03;;;2.32;100.00
64711;BME280;51139;45.626;6.850;2023-04-24T02:15:53;81298.59;;;2.54;100.00
64711;BME280;51139;45.626;6.850;2023-04-24T02:18:18;81308.19;;;2.90;100.00
64711;BME280;51139;45.626;6.850;2023-04-24T02:20:44;81301.38;;;2.48;100.00
64711;BME280;51139;45.626;6.850;2023-04-24T02:23:09;81299.63;;;2.43;100.00
64711;BME280;51139;45.626;6.850;2023-04-24T02:25:35;81310.09;;;2.43;100.00
64711;BME280;51139;45.626;6.850;2023-04-24T02:28:00;81300.00;;;2.47;100.00
64711;BME280;51139;45.626;6.850;2023-04-24T02:30:25;81306.78;;;2.50;100.00
64711;BME280;51139;45.626;6.850;2023-04-24T02:32:51;81307.78;;;2.16;100.00
64711;BME280;51139;45.626;6.850;2023-04-24T02:35:16;81305.72;;;2.45;100.00
64711;BME280;51139;45.626;6.850;2023-04-24T02:37:42;81303.31;;;2.55;100.00
64711;BME280;51139;45.626;6.850;2023-04-24T02:40:08;81310.25;;;2.29;100.00
64711;BME280;51139;45.626;6.850;2023-04-24T02:42:33;81309.88;;;2.17;100.00
64711;BME280;51139;45.626;6.850;2023-04-24T02:44:59;81305.56;;;2.36;100.00
64711;BME280;51139;45.626;6.850;2023-04-24T02:47:25;81300.69;;;2.47;100.00
64711;BME280;51139;45.626;6.850;2023-04-24T02:49:50;81306.06;;;2.26;100.00
64711;BME280;51139;45.626;6.850;2023-04-24T02:52:15;81304.09;;;1.96;100.00
64711;BME280;51139;45.626;6.850;2023-04-24T02:54:42;81308.13;;;2.20;100.00
64711;BME280;51139;45.626;6.850;2023-04-24T02:57:07;81312.03;;;2.50;100.00
64711;BME280;51139;45.626;6.850;2023-04-24T02:59:33;81304.72;;;1.81;100.00
64711;BME280;51139;45.626;6.850;2023-04-24T03:01:58;81318.22;;;2.08;100.00
64711;BME280;51139;45.626;6.850;2023-04-24T03:04:23;81321.00;;;2.18;100.00
64711;BME280;51139;45.626;6.850;2023-04-24T03:06:49;81316.47;;;2.03;100.00
64711;BME280;51139;45.626;6.850;2023-04-24T03:09:16;81324.44;;;1.89;100.00
64711;BME280;51139;45.626;6.850;2023-04-24T03:11:42;81327.09;;;2.13;100.00
64711;BME280;51139;45.626;6.850;2023-04-24T03:14:07;81321.00;;;2.10;100.00
64711;BME280;51139;45.626;6.850;2023-04-24T03:16:32;81316.38;;;2.40;100.00
64711;BME280;51139;45.626;6.850;2023-04-24T03:18:58;81319.53;;;2.61;100.00
64711;BME280;51139;45.626;6.850;2023-04-24T03:21:23;81327.03;;;2.73;100.00
64711;BME280;51139;45.626;6.850;2023-04-24T03:23:48;81318.78;;;2.30;100.00
64711;BME280;51139;45.626;6.850;2023-04-24T03:26:14;81317.56;;;1.71;100.00
64711;BME280;51139;45.626;6.850;2023-04-24T03:28:39;81325.75;;;1.75;100.00
64711;BME280;51139;45.626;6.850;2023-04-24T07:31:03;81455.78;;;2.06;100.00
64711;BME280;51139;45.626;6.850;2023-04-24T07:33:29;81441.28;;;2.33;100.00
64711;BME280;51139;45.626;6.850;2023-04-24T07:35:54;81439.63;;;2.59;100.00
64711;BME280;51139;45.626;6.850;2023-04-24T07:38:20;81445.59;;;2.75;100.00
64711;BME280;51139;45.626;6.850;2023-04-24T07:40:47;81443.19;;;2.25;100.00
64711;BME280;51139;45.626;6.850;2023-04-24T07:43:13;81442.88;;;2.44;100.00
64711;BME280;51139;45.626;6.850;2023-04-24T07:45:38;81441.63;;;2.98;100.00
64711;BME280;51139;45.626;6.850;2023-04-24T07:48:05;81446.72;;;3.50;100.00
64711;BME280;51139;45.626;6.850;2023-04-24T07:50:30;81442.69;;;3.49;100.00
64711;BME280;51139;45.626;6.850;2023-04-24T07:52:56;81448.81;;;3.67;100.00
64711;BME280;51139;45.626;6.850;2023-04-24T07:55:21;81453.19;;;3.33;100.00
64711;BME280;51139;45.626;6.850;2023-04-24T07:57:47;81453.72;;;3.71;100.00
64711;BME280;51139;45.626;6.850;2023-04-24T08:00:12;81453.41;;;4.38;100.00
64711;BME280;51139;45.626;6.850;2023-04-24T08:02:38;81452.75;;;4.22;100.00
64711;BME280;51139;45.626;6.850;2023-04-24T08:05:04;81458.59;;;3.51;100.00
64711;BME280;51139;45.626;6.850;2023-04-24T08:07:30;81466.28;;;3.49;100.00
64711;BME280;51139;45.626;6.850;2023-04-24T08:09:57;81466.63;;;3.14;100.00
64711;BME280;51139;45.626;6.850;2023-04-24T08:12:22;81463.13;;;3.66;100.00
64711;BME280;51139;45.626;6.850;2023-04-24T08:14:47;81474.50;;;3.45;100.00
64711;BME280;51139;45.626;6.850;2023-04-24T08:17:14;81477.28;;;3.63;100.00
64711;BME280;51139;45.626;6.850;2023-04-24T08:19:41;81469.78;;;3.36;100.00
64711;BME280;51139;45.626;6.850;2023-04-24T08:22:16;81472.91;;;3.58;100.00
64711;BME280;51139;45.626;6.850;2023-04-24T08:24:41;81478.84;;;3.43;100.00
64711;BME280;51139;45.626;6.850;2023-04-24T08:27:08;81484.63;;;3.57;100.00
64711;BME280;51139;45.626;6.850;2023-04-24T08:29:33;81480.41;;;3.38;100.00
64711;BME280;51139;45.626;6.850;2023-04-24T08:32:00;81480.75;;;3.27;100.00
64711;BME280;51139;45.626;6.850;2023-04-24T08:34:25;81488.91;;;3.08;100.00
64711;BME280;51139;45.626;6.850;2023-04-24T08:36:50;81486.88;;;3.45;100.00
64711;BME280;51139;45.626;6.850;2023-04-24T08:39:17;81486.00;;;3.42;100.00
64711;BME280;51139;45.626;6.850;2023-04-24T08:41:43;81482.09;;;2.89;100.00
64711;BME280;51139;45.626;6.850;2023-04-24T08:44:09;81489.63;;;3.16;100.00
64711;BME280;51139;45.626;6.850;2023-04-24T08:46:35;81490.81;;;3.07;100.00
64711;BME280;51139;45.626;6.850;2023-04-24T08:49:02;81490.56;;;3.65;100.00
64711;BME280;51139;45.626;6.850;2023-04-24T08:51:27;81483.22;;;4.02;100.00
64711;BME280;51139;45.626;6.850;2023-04-24T08:53:55;81485.69;;;4.64;100.00
64711;BME280;51139;45.626;6.850;2023-04-24T08:56:22;81484.75;;;4.13;100.00
64711;BME280;51139;45.626;6.850;2023-04-24T08:58:50;81476.56;;;3.24;100.00
64711;BME280;51139;45.626;6.850;2023-04-24T09:01:17;81485.47;;;3.83;100.00
64711;BME280;51139;45.626;6.850;2023-04-24T09:03:43;81485.25;;;4.27;100.00
64711;BME280;51139;45.626;6.850;2023-04-24T09:06:10;81481.75;;;4.32;100.00
64711;BME280;51139;45.626;6.850;2023-04-24T09:08:36;81499.56;;;4.49;100.00
64711;BME280;51139;45.626;6.850;2023-04-24T09:11:03;81495.47;;;4.72;100.00
64711;BME280;51139;45.626;6.850;2023-04-24T09:13:30;81501.25;;;4.70;100.00
64711;BME280;51139;45.626;6.850;2023-04-24T09:15:56;81503.03;;;4.60;100.00
64711;BME280;51139;45.626;6.850;2023-04-24T09:18:22;81500.84;;;4.09;100.00
64711;BME280;51139;45.626;6.850;2023-04-24T09:21:07;81501.91;;;4.06;100.00
64711;BME280;51139;45.626;6.850;2023-04-24T09:23:33;81507.50;;;3.56;100.00
64711;BME280;51139;45.626;6.850;2023-04-24T09:26:01;81497.47;;;3.16;100.00
64711;BME280;51139;45.626;6.850;2023-04-24T09:28:31;81506.25;;;3.34;100.00
64711;BME280;51139;45.626;6.850;2023-04-24T09:31:12;81517.97;;;3.79;100.00
64711;BME280;51139;45.626;6.850;2023-04-24T09:33:39;81522.84;;;3.91;100.00
64711;BME280;51139;45.626;6.850;2023-04-24T09:36:05;81521.44;;;4.13;100.00
64711;BME280;51139;45.626;6.850;2023-04-24T09:38:38;81515.53;;;3.74;100.00
64711;BME280;51139;45.626;6.850;2023-04-24T09:41:07;81526.47;;;3.26;100.00
64711;BME280;51139;45.626;6.850;2023-04-24T09:43:34;81525.94;;;3.27;100.00
64711;BME280;51139;45.626;6.850;2023-04-24T09:46:05;81517.38;;;3.19;100.00
64711;BME280;51139;45.626;6.850;2023-04-24T09:48:35;81521.75;;;3.24;100.00
64711;BME280;51139;45.626;6.850;2023-04-24T09:51:02;81506.97;;;3.58;100.00
64711;BME280;51139;45.626;6.850;2023-04-24T09:53:29;81515.34;;;3.79;100.00
64711;BME280;51139;45.626;6.850;2023-04-24T09:55:55;81512.91;;;3.89;100.00
64711;BME280;51139;45.626;6.850;2023-04-24T09:58:27;81506.09;;;3.86;100.00
64711;BME280;51139;45.626;6.850;2023-04-24T10:00:54;81509.69;;;3.13;100.00
64711;BME280;51139;45.626;6.850;2023-04-24T10:03:20;81519.66;;;3.23;100.00
64711;BME280;51139;45.626;6.850;2023-04-24T10:05:46;81530.22;;;2.94;100.00
64711;BME280;51139;45.626;6.850;2023-04-24T10:08:12;81524.13;;;2.99;100.00
64711;BME280;51139;45.626;6.850;2023-04-24T10:10:40;81525.28;;;3.50;100.00
64711;BME280;51139;45.626;6.850;2023-04-24T10:13:07;81536.78;;;3.31;100.00
64711;BME280;51139;45.626;6.850;2023-04-24T10:15:34;81537.63;;;3.26;100.00
64711;BME280;51139;45.626;6.850;2023-04-24T10:18:00;81534.78;;;2.56;100.00
64711;BME280;51139;45.626;6.850;2023-04-24T10:20:27;81539.41;;;2.71;100.00
64711;BME280;51139;45.626;6.850;2023-04-24T10:22:58;81536.56;;;3.14;100.00
64711;BME280;51139;45.626;6.850;2023-04-24T10:25:26;81539.66;;;2.97;100.00
64711;BME280;51139;45.626;6.850;2023-04-24T10:27:52;81535.72;;;3.27;100.00
64711;BME280;51139;45.626;6.850;2023-04-24T10:30:19;81543.06;;;3.36;100.00
64711;BME280;51139;45.626;6.850;2023-04-24T10:32:45;81528.03;;;3.13;100.00
64711;BME280;51139;45.626;6.850;2023-04-24T10:35:15;81542.63;;;3.01;100.00
64711;BME280;51139;45.626;6.850;2023-04-24T10:37:48;81544.81;;;2.81;100.00
64711;BME280;51139;45.626;6.850;2023-04-24T10:40:18;81538.25;;;2.51;100.00
64711;BME280;51139;45.626;6.850;2023-04-24T10:42:47;81547.16;;;3.00;100.00
64711;BME280;51139;45.626;6.850;2023-04-24T10:45:20;81533.97;;;3.21;100.00
64711;BME280;51139;45.626;6.850;2023-04-24T10:48:01;81536.59;;;3.29;100.00
64711;BME280;51139;45.626;6.850;2023-04-24T10:50:28;81539.81;;;2.99;100.00
64711;BME280;51139;45.626;6.850;2023-04-24T10:53:06;81542.91;;;3.49;100.00
64711;BME280;51139;45.626;6.850;2023-04-24T10:58:37;81535.75;;;3.50;100.00
64711;BME280;51139;45.626;6.850;2023-04-24T11:01:03;81537.00;;;3.64;100.00
64711;BME280;51139;45.626;6.850;2023-04-24T11:03:34;81535.97;;;4.14;100.00
64711;BME280;51139;45.626;6.850;2023-04-24T11:08:30;81540.84;;;3.94;100.00
64711;BME280;51139;45.626;6.850;2023-04-24T11:11:17;81542.06;;;3.70;100.00
64711;BME280;51139;45.626;6.850;2023-04-24T11:16:25;81539.63;;;2.89;100.00
64711;BME280;51139;45.626;6.850;2023-04-24T11:18:52;81535.78;;;3.58;100.00
64711;BME280;51139;45.626;6.850;2023-04-24T11:21:28;81534.91;;;3.86;100.00
64711;BME280;51139;45.626;6.850;2023-04-24T11:23:56;81532.09;;;3.53;100.00
64711;BME280;51139;45.626;6.850;2023-04-24T11:26:22;81544.00;;;3.54;100.00
64711;BME280;51139;45.626;6.850;2023-04-24T11:28:50;81536.44;;;2.75;100.00
64711;BME280;51139;45.626;6.850;2023-04-24T11:31:39;81542.25;;;3.72;100.00
64711;BME280;51139;45.626;6.850;2023-04-24T11:34:14;81536.94;;;3.26;100.00
64711;BME280;51139;45.626;6.850;2023-04-24T11:36:43;81541.38;;;3.77;100.00
64711;BME280;51139;45.626;6.850;2023-04-24T11:39:09;81541.34;;;4.40;100.00
64711;BME280;51139;45.626;6.850;2023-04-24T11:41:35;81539.00;;;4.75;100.00
64711;BME280;51139;45.626;6.850;2023-04-24T11:44:01;81537.75;;;4.91;100.00
64711;BME280;51139;45.626;6.850;2023-04-24T11:46:30;81544.13;;;5.21;96.79
64711;BME280;51139;45.626;6.850;2023-04-24T11:48:57;81550.25;;;5.16;88.82
64711;BME280;51139;45.626;6.850;2023-04-24T11:51:24;81548.69;;;4.49;90.38
64711;BME280;51139;45.626;6.850;2023-04-24T11:53:55;81546.22;;;4.51;93.40
64711;BME280;51139;45.626;6.850;2023-04-24T11:56:22;81552.91;;;4.44;92.87
64711;BME280;51139;45.626;6.850;2023-04-24T11:58:47;81554.97;;;4.46;94.88
64711;BME280;51139;45.626;6.850;2023-04-24T12:01:13;81549.34;;;4.65;92.81
64711;BME280;51139;45.626;6.850;2023-04-24T12:03:39;81559.31;;;4.74;93.65
64711;BME280;51139;45.626;6.850;2023-04-24T12:06:08;81556.91;;;4.45;93.09
64711;BME280;51139;45.626;6.850;2023-04-24T12:08:35;81562.16;;;4.14;90.38
64711;BME280;51139;45.626;6.850;2023-04-24T12:11:01;81552.69;;;4.50;88.18
64711;BME280;51139;45.626;6.850;2023-04-24T12:13:27;81558.66;;;4.50;89.40
64711;BME280;51139;45.626;6.850;2023-04-24T12:15:53;81554.84;;;5.08;85.06
64711;BME280;51139;45.626;6.850;2023-04-24T12:18:22;81560.25;;;5.10;82.07
64711;BME280;51139;45.626;6.850;2023-04-24T12:20:47;81554.22;;;4.76;80.99
64711;BME280;51139;45.626;6.850;2023-04-24T12:23:13;81555.84;;;4.56;83.38
64711;BME280;51139;45.626;6.850;2023-04-24T12:25:38;81556.84;;;4.68;83.34
64711;BME280;51139;45.626;6.850;2023-04-24T12:30:34;81561.66;;;5.52;78.99
64711;BME280;51139;45.626;6.850;2023-04-24T12:33:01;81559.16;;;5.62;77.22
64711;BME280;51139;45.626;6.850;2023-04-24T12:35:29;81563.31;;;5.39;75.80
64711;BME280;51139;45.626;6.850;2023-04-24T12:37:54;81560.88;;;5.67;75.57
64711;BME280;51139;45.626;6.850;2023-04-24T12:40:21;81557.63;;;5.10;80.52
64711;BME280;51139;45.626;6.850;2023-04-24T12:42:49;81564.88;;;5.43;80.53
64711;BME280;51139;45.626;6.850;2023-04-24T12:45:16;81560.75;;;5.90;82.72
64711;BME280;51139;45.626;6.850;2023-04-24T12:47:43;81557.72;;;5.68;74.86
64711;BME280;51139;45.626;6.850;2023-04-24T12:50:10;81564.22;;;5.26;81.21
64711;BME280;51139;45.626;6.850;2023-04-24T12:52:37;81559.41;;;5.48;80.81
64711;BME280;51139;45.626;6.850;2023-04-24T12:55:03;81550.50;;;5.03;70.04
64711;BME280;51139;45.626;6.850;2023-04-24T12:57:30;81545.44;;;5.71;77.33
64711;BME280;51139;45.626;6.850;2023-04-24T12:59:58;81551.28;;;5.62;75.12
64711;BME280;51139;45.626;6.850;2023-04-24T13:02:24;81557.66;;;5.51;72.45
64711;BME280;51139;45.626;6.850;2023-04-24T13:04:50;81551.00;;;5.83;74.35
64711;BME280;51139;45.626;6.850;2023-04-24T13:07:16;81558.72;;;5.81;74.44
64711;BME280;51139;45.626;6.850;2023-04-24T13:09:42;81553.88;;;5.36;73.15
64711;BME280;51139;45.626;6.850;2023-04-24T13:12:09;81540.00;;;5.03;65.38
64711;BME280;51139;45.626;6.850;2023-04-24T13:14:35;81542.72;;;5.20;60.40
64711;BME280;51139;45.626;6.850;2023-04-24T13:17:01;81548.31;;;5.17;66.99
64711;BME280;51139;45.626;6.850;2023-04-24T13:19:27;81551.13;;;5.19;65.91
64711;BME280;51139;45.626;6.850;2023-04-24T13:21:54;81551.03;;;5.42;65.81
64711;BME280;51139;45.626;6.850;2023-04-24T13:24:21;81553.47;;;5.48;68.11
64711;BME280;51139;45.626;6.850;2023-04-24T13:26:49;81542.38;;;5.16;56.85
64711;BME280;51139;45.626;6.850;2023-04-24T13:29:15;81554.97;;;5.59;64.95
64711;BME280;51139;45.626;6.850;2023-04-24T13:31:40;81549.91;;;5.86;60.87
64711;BME280;51139;45.626;6.850;2023-04-24T13:34:06;81551.25;;;5.69;61.97
64711;BME280;51139;45.626;6.850;2023-04-24T13:36:32;81543.19;;;6.01;62.63
64711;BME280;51139;45.626;6.850;2023-04-24T13:38:58;81535.84;;;5.66;66.33
64711;BME280;51139;45.626;6.850;2023-04-24T13:41:23;81551.31;;;5.87;64.08
64711;BME280;51139;45.626;6.850;2023-04-24T13:43:49;81546.31;;;6.07;56.87
64711;BME280;51139;45.626;6.850;2023-04-24T13:46:14;81547.50;;;6.39;63.29
64711;BME280;51139;45.626;6.850;2023-04-24T13:48:39;81543.84;;;6.34;72.99
64711;BME280;51139;45.626;6.850;2023-04-24T13:51:06;81540.53;;;6.34;68.75
64711;BME280;51139;45.626;6.850;2023-04-24T13:53:31;81532.91;;;6.20;65.89
64711;BME280;51139;45.626;6.850;2023-04-24T13:55:57;81544.13;;;5.88;66.13
64711;BME280;51139;45.626;6.850;2023-04-24T13:58:23;81543.47;;;6.38;60.09
64711;BME280;51139;45.626;6.850;2023-04-24T14:00:48;81536.19;;;5.95;65.43
64711;BME280;51139;45.626;6.850;2023-04-24T14:03:14;81524.63;;;5.65;63.43
64711;BME280;51139;45.626;6.850;2023-04-24T14:05:39;81539.44;;;6.11;62.27
64711;BME280;51139;45.626;6.850;2023-04-24T14:08:04;81540.13;;;6.37;61.38
64711;BME280;51139;45.626;6.850;2023-04-24T14:10:31;81525.91;;;6.15;60.08
64711;BME280;51139;45.626;6.850;2023-04-24T14:12:56;81528.59;;;5.74;57.06
64711;BME280;51139;45.626;6.850;2023-04-24T14:15:21;81534.97;;;6.22;59.59
64711;BME280;51139;45.626;6.850;2023-04-24T14:17:48;81530.53;;;6.07;62.69
64711;BME280;51139;45.626;6.850;2023-04-24T14:20:14;81530.38;;;6.30;66.46
64711;BME280;51139;45.626;6.850;2023-04-24T14:22:40;81533.53;;;6.28;62.62
64711;BME280;51139;45.626;6.850;2023-04-24T14:25:06;81517.06;;;6.46;60.06
64711;BME280;51139;45.626;6.850;2023-04-24T14:27:32;81523.38;;;6.50;60.83
64711;BME280;51139;45.626;6.850;2023-04-24T14:29:57;81521.25;;;6.49;57.01
64711;BME280;51139;45.626;6.850;2023-04-24T14:32:22;81522.34;;;6.46;60.73
64711;BME280;51139;45.626;6.850;2023-04-24T14:34:49;81516.66;;;5.81;60.92
64711;BME280;51139;45.626;6.850;2023-04-24T14:37:15;81519.56;;;6.43;58.86
64711;BME280;51139;45.626;6.850;2023-04-24T14:39:40;81513.22;;;6.47;59.80
64711;BME280;51139;45.626;6.850;2023-04-24T14:42:05;81508.19;;;6.41;62.99
64711;BME280;51139;45.626;6.850;2023-04-24T14:44:31;81507.56;;;6.33;65.85
64711;BME280;51139;45.626;6.850;2023-04-24T14:46:58;81508.91;;;6.16;60.59
64711;BME280;51139;45.626;6.850;2023-04-24T14:49:25;81508.09;;;6.31;59.91
64711;BME280;51139;45.626;6.850;2023-04-24T14:51:51;81512.50;;;6.28;59.16
64711;BME280;51139;45.626;6.850;2023-04-24T14:54:16;81505.00;;;6.42;62.77
64711;BME280;51139;45.626;6.850;2023-04-24T14:56:42;81503.00;;;6.08;59.27
64711;BME280;51139;45.626;6.850;2023-04-24T14:59:09;81504.28;;;6.24;61.49
64711;BME280;51139;45.626;6.850;2023-04-24T15:01:35;81502.38;;;6.60;57.38
64711;BME280;51139;45.626;6.850;2023-04-24T15:04:00;81508.41;;;6.53;55.03
64711;BME280;51139;45.626;6.850;2023-04-24T15:06:26;81496.84;;;6.74;52.92
64711;BME280;51139;45.626;6.850;2023-04-24T15:08:51;81506.25;;;6.59;64.13
64711;BME280;51139;45.626;6.850;2023-04-24T15:11:17;81503.88;;;6.53;60.60
64711;BME280;51139;45.626;6.850;2023-04-24T15:13:43;81498.16;;;6.82;54.60
64711;BME280;51139;45.626;6.850;2023-04-24T15:16:10;81495.81;;;6.69;52.68
64711;BME280;51139;45.626;6.850;2023-04-24T15:18:36;81497.78;;;6.86;54.46
64711;BME280;51139;45.626;6.850;2023-04-24T15:21:02;81501.09;;;6.51;57.82
64711;BME280;51139;45.626;6.850;2023-04-24T15:23:27;81496.47;;;6.34;54.23
64711;BME280;51139;45.626;6.850;2023-04-24T15:25:52;81502.00;;;6.46;53.11
64711;BME280;51139;45.626;6.850;2023-04-24T15:28:18;81501.06;;;6.08;55.97
64711;BME280;51139;45.626;6.850;2023-04-24T15:30:43;81500.81;;;6.39;53.53
64711;BME280;51139;45.626;6.850;2023-04-24T15:33:08;81492.56;;;6.43;56.96
64711;BME280;51139;45.626;6.850;2023-04-24T15:35:34;81495.88;;;6.43;58.76
64711;BME280;51139;45.626;6.850;2023-04-24T15:38:00;81498.03;;;6.37;57.79
64711;BME280;51139;45.626;6.850;2023-04-24T15:40:26;81494.88;;;5.88;54.61
64711;BME280;51139;45.626;6.850;2023-04-24T15:42:52;81489.41;;;5.68;56.86
64711;BME280;51139;45.626;6.850;2023-04-24T15:45:17;81489.03;;;5.47;57.07
64711;BME280;51139;45.626;6.850;2023-04-24T15:47:44;81489.09;;;5.31;58.88
64711;BME280;51139;45.626;6.850;2023-04-24T15:50:11;81499.38;;;6.03;59.91
64711;BME280;51139;45.626;6.850;2023-04-24T15:52:36;81495.44;;;5.87;59.21
64711;BME280;51139;45.626;6.850;2023-04-24T15:55:03;81507.50;;;5.57;58.19
64711;BME280;51139;45.626;6.850;2023-04-24T15:57:30;81496.34;;;5.48;59.49
64711;BME280;51139;45.626;6.850;2023-04-24T15:59:55;81499.50;;;5.80;57.75
64711;BME280;51139;45.626;6.850;2023-04-24T16:02:21;81499.16;;;5.76;57.98
64711;BME280;51139;45.626;6.850;2023-04-24T16:04:48;81497.34;;;5.86;57.01
64711;BME280;51139;45.626;6.850;2023-04-24T16:07:14;81498.97;;;5.81;58.15
64711;BME280;51139;45.626;6.850;2023-04-24T16:09:42;81504.56;;;6.11;55.13
64711;BME280;51139;45.626;6.850;2023-04-24T16:12:09;81499.44;;;6.38;52.35
64711;BME280;51139;45.626;6.850;2023-04-24T16:14:35;81498.28;;;6.32;53.25
64711;BME280;51139;45.626;6.850;2023-04-24T16:17:01;81506.59;;;5.95;53.56
64711;BME280;51139;45.626;6.850;2023-04-24T16:19:27;81505.00;;;5.66;56.24
64711;BME280;51139;45.626;6.850;2023-04-24T16:21:52;81509.00;;;5.75;56.86
64711;BME280;51139;45.626;6.850;2023-04-24T16:24:22;81512.19;;;6.24;55.69
64711;BME280;51139;45.626;6.850;2023-04-24T16:26:49;81511.63;;;6.26;54.47
64711;BME280;51139;45.626;6.850;2023-04-24T16:29:15;81512.22;;;6.42;52.38
64711;BME280;51139;45.626;6.850;2023-04-24T16:31:40;81514.47;;;5.95;51.75
64711;BME280;51139;45.626;6.850;2023-04-24T16:34:06;81511.16;;;6.20;52.93
64711;BME280;51139;45.626;6.850;2023-04-24T16:36:31;81515.97;;;6.31;52.40
64711;BME280;51139;45.626;6.850;2023-04-24T16:38:58;81512.44;;;6.11;51.51
64711;BME280;51139;45.626;6.850;2023-04-24T16:41:26;81514.09;;;6.24;51.95
64711;BME280;51139;45.626;6.850;2023-04-24T16:43:51;81508.72;;;6.14;52.62
64711;BME280;51139;45.626;6.850;2023-04-24T16:46:17;81512.19;;;6.24;51.38
64711;BME280;51139;45.626;6.850;2023-04-24T16:48:43;81508.81;;;6.06;51.69
64711;BME280;51139;45.626;6.850;2023-04-24T16:51:08;81515.66;;;5.76;52.41
64711;BME280;51139;45.626;6.850;2023-04-24T16:53:34;81504.53;;;5.60;52.55
64711;BME280;51139;45.626;6.850;2023-04-24T16:55:59;81512.44;;;5.52;52.43
64711;BME280;51139;45.626;6.850;2023-04-24T16:58:24;81510.56;;;5.45;53.88
64711;BME280;51139;45.626;6.850;2023-04-24T17:00:50;81508.16;;;5.65;53.83
64711;BME280;51139;45.626;6.850;2023-04-24T17:03:15;81512.56;;;5.62;54.30
64711;BME280;51139;45.626;6.850;2023-04-24T17:05:41;81509.22;;;5.62;53.74
64711;BME280;51139;45.626;6.850;2023-04-24T17:08:06;81505.38;;;5.63;52.48
64711;BME280;51139;45.626;6.850;2023-04-24T17:10:32;81506.38;;;5.75;52.34
64711;BME280;51139;45.626;6.850;2023-04-24T17:12:57;81506.72;;;5.72;54.00